sensor_id;sensor_type;location;lat;lon;timestamp;temperature;humidity
59146;DHT22;44928;53.074;6.646;2023-05-18T00:02:07;8.30;99.90
59146;DHT22;44928;53.074;6.646;2023-05-18T00:04:33;8.30;99.90
59146;DHT22;44928;53.074;6.646;2023-05-18T00:07:00;8.40;99.90
59146;DHT22;44928;53.074;6.646;2023-05-18T00:09:33;8.40;99.90
59146;DHT22;44928;53.074;6.646;2023-05-18T00:12:01;8.30;99.90
59146;DHT22;44928;53.074;6.646;2023-05-18T00:14:27;8.30;99.90
59146;DHT22;44928;53.074;6.646;2023-05-18T00:16:53;8.30;99.90
59146;DHT22;44928;53.074;6.646;2023-05-18T00:19:20;8.30;99.90
59146;DHT22;44928;53.074;6.646;2023-05-18T00:21:47;8.20;99.90
59146;DHT22;44928;53.074;6.646;2023-05-18T00:24:13;8.20;99.90
59146;DHT22;44928;53.074;6.646;2023-05-18T00:26:41;8.20;99.90
59146;DHT22;44928;53.074;6.646;2023-05-18T00:29:07;8.20;99.90
59146;DHT22;44928;53.074;6.646;2023-05-18T00:31:33;8.20;99.90
59146;DHT22;44928;53.074;6.646;2023-05-18T00:34:07;8.20;99.90
59146;DHT22;44928;53.074;6.646;2023-05-18T00:36:34;8.20;99.90
59146;DHT22;44928;53.074;6.646;2023-05-18T00:39:00;8.20;99.90
59146;DHT22;44928;53.074;6.646;2023-05-18T00:41:27;8.10;99.90
59146;DHT22;44928;53.074;6.646;2023-05-18T00:43:53;8.10;99.90
59146;DHT22;44928;53.074;6.646;2023-05-18T00:46:20;8.10;99.90
59146;DHT22;44928;53.074;6.646;2023-05-18T00:48:46;8.30;99.90
59146;DHT22;44928;53.074;6.646;2023-05-18T00:51:13;8.20;99.90
59146;DHT22;44928;53.074;6.646;2023-05-18T00:53:40;8.20;99.90
59146;DHT22;44928;53.074;6.646;2023-05-18T00:56:06;8.20;99.90
59146;DHT22;44928;53.074;6.646;2023-05-18T00:58:32;8.20;99.90
59146;DHT22;44928;53.074;6.646;2023-05-18T01:00:58;8.20;99.90
59146;DHT22;44928;53.074;6.646;2023-05-18T01:03:23;8.20;99.90
59146;DHT22;44928;53.074;6.646;2023-05-18T01:05:50;8.20;99.90
59146;DHT22;44928;53.074;6.646;2023-05-18T01:08:24;8.40;99.90
59146;DHT22;44928;53.074;6.646;2023-05-18T01:10:55;8.30;99.90
59146;DHT22;44928;53.074;6.646;2023-05-18T01:13:34;8.30;99.90
59146;DHT22;44928;53.074;6.646;2023-05-18T01:16:04;8.30;99.90
59146;DHT22;44928;53.074;6.646;2023-05-18T01:18:53;8.30;99.90
59146;DHT22;44928;53.074;6.646;2023-05-18T01:21:43;8.30;99.90
59146;DHT22;44928;53.074;6.646;2023-05-18T01:24:37;8.30;99.90
59146;DHT22;44928;53.074;6.646;2023-05-18T01:27:07;8.30;99.90
59146;DHT22;44928;53.074;6.646;2023-05-18T01:29:34;8.30;99.90
59146;DHT22;44928;53.074;6.646;2023-05-18T01:32:00;8.30;99.90
59146;DHT22;44928;53.074;6.646;2023-05-18T01:34:26;8.40;99.90
59146;DHT22;44928;53.074;6.646;2023-05-18T01:36:52;8.40;99.90
59146;DHT22;44928;53.074;6.646;2023-05-18T01:39:18;8.30;99.90
59146;DHT22;44928;53.074;6.646;2023-05-18T01:41:55;8.40;99.90
59146;DHT22;44928;53.074;6.646;2023-05-18T01:44:28;8.40;99.90
59146;DHT22;44928;53.074;6.646;2023-05-18T01:47:09;8.20;99.90
59146;DHT22;44928;53.074;6.646;2023-05-18T01:52:20;8.30;99.90
59146;DHT22;44928;53.074;6.646;2023-05-18T01:54:51;8.30;99.90
59146;DHT22;44928;53.074;6.646;2023-05-18T01:57:20;8.30;99.90
59146;DHT22;44928;53.074;6.646;2023-05-18T01:59:49;8.30;99.90
59146;DHT22;44928;53.074;6.646;2023-05-18T02:02:15;8.30;99.90
59146;DHT22;44928;53.074;6.646;2023-05-18T02:04:42;8.30;99.90
59146;DHT22;44928;53.074;6.646;2023-05-18T02:07:07;8.30;99.90
59146;DHT22;44928;53.074;6.646;2023-05-18T02:09:33;8.30;99.90
59146;DHT22;44928;53.074;6.646;2023-05-18T02:11:59;8.30;99.90
59146;DHT22;44928;53.074;6.646;2023-05-18T02:14:25;8.30;99.90
59146;DHT22;44928;53.074;6.646;2023-05-18T02:16:50;8.30;99.90
59146;DHT22;44928;53.074;6.646;2023-05-18T02:19:18;8.30;99.90
59146;DHT22;44928;53.074;6.646;2023-05-18T02:21:44;8.30;99.90
59146;DHT22;44928;53.074;6.646;2023-05-18T02:24:10;8.30;99.90
59146;DHT22;44928;53.074;6.646;2023-05-18T02:26:37;8.30;99.90
59146;DHT22;44928;53.074;6.646;2023-05-18T02:29:04;8.30;99.90
59146;DHT22;44928;53.074;6.646;2023-05-18T02:31:36;8.30;99.90
59146;DHT22;44928;53.074;6.646;2023-05-18T02:34:02;8.30;99.90
59146;DHT22;44928;53.074;6.646;2023-05-18T02:36:28;8.30;99.90
59146;DHT22;44928;53.074;6.646;2023-05-18T02:39:02;8.40;99.90
59146;DHT22;44928;53.074;6.646;2023-05-18T02:41:29;8.30;99.90
59146;DHT22;44928;53.074;6.646;2023-05-18T02:43:55;8.30;99.90
59146;DHT22;44928;53.074;6.646;2023-05-18T02:46:21;8.30;99.90
59146;DHT22;44928;53.074;6.646;2023-05-18T02:48:46;8.30;99.90
59146;DHT22;44928;53.074;6.646;2023-05-18T02:51:12;8.30;99.90
59146;DHT22;44928;53.074;6.646;2023-05-18T02:53:38;8.30;99.90
59146;DHT22;44928;53.074;6.646;2023-05-18T02:56:04;8.30;99.90
59146;DHT22;44928;53.074;6.646;2023-05-18T02:58:30;8.40;99.90
59146;DHT22;44928;53.074;6.646;2023-05-18T03:00:56;8.40;99.90
59146;DHT22;44928;53.074;6.646;2023-05-18T03:03:24;8.30;99.90
59146;DHT22;44928;53.074;6.646;2023-05-18T03:05:50;8.40;99.90
59146;DHT22;44928;53.074;6.646;2023-05-18T03:08:22;8.30;99.90
59146;DHT22;44928;53.074;6.646;2023-05-18T03:10:48;8.40;99.90
59146;DHT22;44928;53.074;6.646;2023-05-18T03:13:14;8.30;99.90
59146;DHT22;44928;53.074;6.646;2023-05-18T03:15:40;8.30;99.90
59146;DHT22;44928;53.074;6.646;2023-05-18T03:18:06;8.30;99.90
59146;DHT22;44928;53.074;6.646;2023-05-18T03:20:32;8.30;99.90
59146;DHT22;44928;53.074;6.646;2023-05-18T03:23:00;8.30;99.90
59146;DHT22;44928;53.074;6.646;2023-05-18T03:25:25;8.30;99.90
59146;DHT22;44928;53.074;6.646;2023-05-18T03:27:51;8.40;99.90
59146;DHT22;44928;53.074;6.646;2023-05-18T03:30:19;8.40;99.90
59146;DHT22;44928;53.074;6.646;2023-05-18T03:32:46;8.30;99.90
59146;DHT22;44928;53.074;6.646;2023-05-18T03:35:12;8.40;99.90
59146;DHT22;44928;53.074;6.646;2023-05-18T03:37:38;8.40;99.90
59146;DHT22;44928;53.074;6.646;2023-05-18T03:40:09;8.50;99.90
59146;DHT22;44928;53.074;6.646;2023-05-18T03:42:37;8.30;99.90
59146;DHT22;44928;53.074;6.646;2023-05-18T03:45:02;8.40;99.90
59146;DHT22;44928;53.074;6.646;2023-05-18T03:47:28;8.30;99.90
59146;DHT22;44928;53.074;6.646;2023-05-18T03:49:54;8.30;99.90
59146;DHT22;44928;53.074;6.646;2023-05-18T03:52:20;8.30;99.90
59146;DHT22;44928;53.074;6.646;2023-05-18T03:54:47;8.30;99.90
59146;DHT22;44928;53.074;6.646;2023-05-18T03:57:15;8.20;99.90
59146;DHT22;44928;53.074;6.646;2023-05-18T03:59:42;8.30;99.90
59146;DHT22;44928;53.074;6.646;2023-05-18T04:02:08;8.30;99.90
59146;DHT22;44928;53.074;6.646;2023-05-18T04:04:33;8.30;99.90
59146;DHT22;44928;53.074;6.646;2023-05-18T04:07:00;8.40;99.90
59146;DHT22;44928;53.074;6.646;2023-05-18T04:09:27;8.40;99.90
59146;DHT22;44928;53.074;6.646;2023-05-18T04:11:54;8.40;99.90
59146;DHT22;44928;53.074;6.646;2023-05-18T04:14:19;8.40;99.90
59146;DHT22;44928;53.074;6.646;2023-05-18T04:16:45;8.50;99.90
59146;DHT22;44928;53.074;6.646;2023-05-18T04:19:11;8.40;99.90
59146;DHT22;44928;53.074;6.646;2023-05-18T04:21:38;8.30;99.90
59146;DHT22;44928;53.074;6.646;2023-05-18T04:24:08;8.40;99.90
59146;DHT22;44928;53.074;6.646;2023-05-18T04:26:40;8.40;99.90
59146;DHT22;44928;53.074;6.646;2023-05-18T04:29:07;8.40;99.90
59146;DHT22;44928;53.074;6.646;2023-05-18T04:31:36;8.40;99.90
59146;DHT22;44928;53.074;6.646;2023-05-18T04:34:01;8.50;99.90
59146;DHT22;44928;53.074;6.646;2023-05-18T04:36:27;8.50;99.90
59146;DHT22;44928;53.074;6.646;2023-05-18T04:38:58;8.60;99.90
59146;DHT22;44928;53.074;6.646;2023-05-18T04:41:27;8.60;99.90
59146;DHT22;44928;53.074;6.646;2023-05-18T04:43:52;8.50;99.90
59146;DHT22;44928;53.074;6.646;2023-05-18T04:46:19;8.50;99.90
59146;DHT22;44928;53.074;6.646;2023-05-18T04:48:48;8.50;99.90
59146;DHT22;44928;53.074;6.646;2023-05-18T04:51:16;8.50;99.90
59146;DHT22;44928;53.074;6.646;2023-05-18T04:53:48;8.50;99.90
59146;DHT22;44928;53.074;6.646;2023-05-18T04:56:18;8.50;99.90
59146;DHT22;44928;53.074;6.646;2023-05-18T04:58:45;8.50;99.90
59146;DHT22;44928;53.074;6.646;2023-05-18T05:01:13;8.60;99.90
59146;DHT22;44928;53.074;6.646;2023-05-18T05:03:42;8.60;99.90
59146;DHT22;44928;53.074;6.646;2023-05-18T05:06:09;8.60;99.90
59146;DHT22;44928;53.074;6.646;2023-05-18T05:08:36;8.60;99.90
59146;DHT22;44928;53.074;6.646;2023-05-18T05:11:02;8.60;99.90
59146;DHT22;44928;53.074;6.646;2023-05-18T05:13:28;8.70;99.90
59146;DHT22;44928;53.074;6.646;2023-05-18T05:15:54;8.70;99.90
59146;DHT22;44928;53.074;6.646;2023-05-18T05:18:20;8.70;99.90
59146;DHT22;44928;53.074;6.646;2023-05-18T05:20:46;8.70;99.90
59146;DHT22;44928;53.074;6.646;2023-05-18T05:23:12;8.80;99.90
59146;DHT22;44928;53.074;6.646;2023-05-18T05:25:38;8.90;99.90
59146;DHT22;44928;53.074;6.646;2023-05-18T05:28:04;8.80;99.90
59146;DHT22;44928;53.074;6.646;2023-05-18T05:30:30;8.90;99.90
59146;DHT22;44928;53.074;6.646;2023-05-18T05:32:56;8.90;99.90
59146;DHT22;44928;53.074;6.646;2023-05-18T05:35:21;8.90;99.90
59146;DHT22;44928;53.074;6.646;2023-05-18T05:37:47;9.00;99.90
59146;DHT22;44928;53.074;6.646;2023-05-18T05:40:13;8.90;99.90
59146;DHT22;44928;53.074;6.646;2023-05-18T05:42:39;9.10;99.90
59146;DHT22;44928;53.074;6.646;2023-05-18T05:45:07;9.00;99.90
59146;DHT22;44928;53.074;6.646;2023-05-18T05:47:32;9.10;99.90
59146;DHT22;44928;53.074;6.646;2023-05-18T05:49:58;9.10;99.90
59146;DHT22;44928;53.074;6.646;2023-05-18T05:52:24;9.20;99.90
59146;DHT22;44928;53.074;6.646;2023-05-18T05:54:53;9.20;99.90
59146;DHT22;44928;53.074;6.646;2023-05-18T05:57:19;9.30;99.90
59146;DHT22;44928;53.074;6.646;2023-05-18T05:59:45;9.20;99.90
59146;DHT22;44928;53.074;6.646;2023-05-18T06:02:11;9.30;99.90
59146;DHT22;44928;53.074;6.646;2023-05-18T06:04:37;9.30;99.90
59146;DHT22;44928;53.074;6.646;2023-05-18T06:07:02;9.40;99.90
59146;DHT22;44928;53.074;6.646;2023-05-18T06:09:28;9.40;99.90
59146;DHT22;44928;53.074;6.646;2023-05-18T06:11:54;9.40;99.90
59146;DHT22;44928;53.074;6.646;2023-05-18T06:14:20;9.50;99.90
59146;DHT22;44928;53.074;6.646;2023-05-18T06:16:46;9.50;99.90
59146;DHT22;44928;53.074;6.646;2023-05-18T06:19:12;9.60;99.90
59146;DHT22;44928;53.074;6.646;2023-05-18T06:21:38;9.60;99.90
59146;DHT22;44928;53.074;6.646;2023-05-18T06:24:04;9.60;99.90
59146;DHT22;44928;53.074;6.646;2023-05-18T06:26:30;9.70;99.90
59146;DHT22;44928;53.074;6.646;2023-05-18T06:28:56;9.70;99.90
59146;DHT22;44928;53.074;6.646;2023-05-18T06:31:22;9.70;99.90
59146;DHT22;44928;53.074;6.646;2023-05-18T06:33:48;9.80;99.90
59146;DHT22;44928;53.074;6.646;2023-05-18T06:36:15;9.90;99.90
59146;DHT22;44928;53.074;6.646;2023-05-18T06:38:41;9.90;99.90
59146;DHT22;44928;53.074;6.646;2023-05-18T06:41:07;10.00;99.90
59146;DHT22;44928;53.074;6.646;2023-05-18T06:43:33;10.10;99.90
59146;DHT22;44928;53.074;6.646;2023-05-18T06:45:58;10.10;99.90
59146;DHT22;44928;53.074;6.646;2023-05-18T06:48:26;10.20;99.90
59146;DHT22;44928;53.074;6.646;2023-05-18T06:50:52;10.30;99.90
59146;DHT22;44928;53.074;6.646;2023-05-18T06:53:18;10.30;99.90
59146;DHT22;44928;53.074;6.646;2023-05-18T06:55:44;10.40;99.90
59146;DHT22;44928;53.074;6.646;2023-05-18T06:58:10;10.40;99.90
59146;DHT22;44928;53.074;6.646;2023-05-18T07:00:37;10.50;99.90
59146;DHT22;44928;53.074;6.646;2023-05-18T07:03:02;10.50;99.90
59146;DHT22;44928;53.074;6.646;2023-05-18T07:05:28;10.50;99.90
59146;DHT22;44928;53.074;6.646;2023-05-18T07:07:54;10.60;99.90
59146;DHT22;44928;53.074;6.646;2023-05-18T07:10:20;10.60;99.90
59146;DHT22;44928;53.074;6.646;2023-05-18T07:12:47;10.70;99.90
59146;DHT22;44928;53.074;6.646;2023-05-18T07:15:13;10.70;99.90
59146;DHT22;44928;53.074;6.646;2023-05-18T07:17:39;10.70;99.90
59146;DHT22;44928;53.074;6.646;2023-05-18T07:20:06;10.70;99.90
59146;DHT22;44928;53.074;6.646;2023-05-18T07:22:33;10.60;99.90
59146;DHT22;44928;53.074;6.646;2023-05-18T07:24:58;10.60;99.90
59146;DHT22;44928;53.074;6.646;2023-05-18T07:27:28;10.60;99.90
59146;DHT22;44928;53.074;6.646;2023-05-18T07:29:53;10.60;99.90
59146;DHT22;44928;53.074;6.646;2023-05-18T07:32:19;10.60;99.90
59146;DHT22;44928;53.074;6.646;2023-05-18T07:34:45;10.60;99.90
59146;DHT22;44928;53.074;6.646;2023-05-18T07:37:13;10.60;99.90
59146;DHT22;44928;53.074;6.646;2023-05-18T07:39:39;10.70;99.90
59146;DHT22;44928;53.074;6.646;2023-05-18T07:42:07;10.70;99.90
59146;DHT22;44928;53.074;6.646;2023-05-18T07:44:33;10.70;99.90
59146;DHT22;44928;53.074;6.646;2023-05-18T07:46:58;10.80;99.90
59146;DHT22;44928;53.074;6.646;2023-05-18T07:49:24;10.80;99.90
59146;DHT22;44928;53.074;6.646;2023-05-18T07:51:50;10.90;99.90
59146;DHT22;44928;53.074;6.646;2023-05-18T07:54:17;10.90;99.90
59146;DHT22;44928;53.074;6.646;2023-05-18T07:56:43;10.90;99.90
59146;DHT22;44928;53.074;6.646;2023-05-18T07:59:10;11.00;99.90
59146;DHT22;44928;53.074;6.646;2023-05-18T08:01:36;11.00;99.90
59146;DHT22;44928;53.074;6.646;2023-05-18T08:04:03;11.00;99.90
59146;DHT22;44928;53.074;6.646;2023-05-18T08:06:29;11.00;99.90
59146;DHT22;44928;53.074;6.646;2023-05-18T08:08:56;11.10;99.90
59146;DHT22;44928;53.074;6.646;2023-05-18T08:11:22;11.20;99.90
59146;DHT22;44928;53.074;6.646;2023-05-18T08:13:48;11.20;99.90
59146;DHT22;44928;53.074;6.646;2023-05-18T08:16:14;11.30;99.90
59146;DHT22;44928;53.074;6.646;2023-05-18T08:18:40;11.30;99.90
59146;DHT22;44928;53.074;6.646;2023-05-18T08:21:06;11.40;99.90
59146;DHT22;44928;53.074;6.646;2023-05-18T08:23:34;11.40;99.90
59146;DHT22;44928;53.074;6.646;2023-05-18T08:26:01;11.50;99.90
59146;DHT22;44928;53.074;6.646;2023-05-18T08:28:28;11.60;99.90
59146;DHT22;44928;53.074;6.646;2023-05-18T08:30:54;11.70;99.90
59146;DHT22;44928;53.074;6.646;2023-05-18T08:33:20;11.70;99.90
59146;DHT22;44928;53.074;6.646;2023-05-18T08:35:48;11.70;99.90
59146;DHT22;44928;53.074;6.646;2023-05-18T08:38:14;11.70;99.90
59146;DHT22;44928;53.074;6.646;2023-05-18T08:41:04;11.80;99.90
59146;DHT22;44928;53.074;6.646;2023-05-18T08:43:37;11.90;99.90
59146;DHT22;44928;53.074;6.646;2023-05-18T08:46:22;12.00;99.90
59146;DHT22;44928;53.074;6.646;2023-05-18T08:48:51;12.20;99.90
59146;DHT22;44928;53.074;6.646;2023-05-18T08:51:19;12.30;99.90
59146;DHT22;44928;53.074;6.646;2023-05-18T08:53:53;12.40;99.90
59146;DHT22;44928;53.074;6.646;2023-05-18T08:56:22;12.60;99.90
59146;DHT22;44928;53.074;6.646;2023-05-18T08:58:50;12.70;99.90
59146;DHT22;44928;53.074;6.646;2023-05-18T09:01:16;12.90;99.90
59146;DHT22;44928;53.074;6.646;2023-05-18T09:03:43;13.00;99.90
59146;DHT22;44928;53.074;6.646;2023-05-18T09:06:11;13.00;99.90
59146;DHT22;44928;53.074;6.646;2023-05-18T09:08:37;13.00;99.90
59146;DHT22;44928;53.074;6.646;2023-05-18T09:11:03;13.00;99.90
59146;DHT22;44928;53.074;6.646;2023-05-18T09:13:29;13.10;99.90
59146;DHT22;44928;53.074;6.646;2023-05-18T09:15:55;13.20;99.90
59146;DHT22;44928;53.074;6.646;2023-05-18T09:18:21;13.20;99.90
59146;DHT22;44928;53.074;6.646;2023-05-18T09:20:47;13.20;99.90
59146;DHT22;44928;53.074;6.646;2023-05-18T09:23:14;13.20;99.90
59146;DHT22;44928;53.074;6.646;2023-05-18T09:25:44;13.30;99.90
59146;DHT22;44928;53.074;6.646;2023-05-18T09:28:21;13.40;99.90
59146;DHT22;44928;53.074;6.646;2023-05-18T09:30:49;13.60;99.90
59146;DHT22;44928;53.074;6.646;2023-05-18T09:33:20;13.70;99.90
59146;DHT22;44928;53.074;6.646;2023-05-18T09:35:49;13.80;99.90
59146;DHT22;44928;53.074;6.646;2023-05-18T09:38:25;13.90;99.90
59146;DHT22;44928;53.074;6.646;2023-05-18T09:40:52;14.10;99.90
59146;DHT22;44928;53.074;6.646;2023-05-18T09:43:19;14.20;99.90
59146;DHT22;44928;53.074;6.646;2023-05-18T09:45:47;14.20;99.90
59146;DHT22;44928;53.074;6.646;2023-05-18T09:48:16;14.30;99.90
59146;DHT22;44928;53.074;6.646;2023-05-18T09:50:43;14.40;99.90
59146;DHT22;44928;53.074;6.646;2023-05-18T09:53:10;14.50;99.90
59146;DHT22;44928;53.074;6.646;2023-05-18T09:55:47;14.60;99.90
59146;DHT22;44928;53.074;6.646;2023-05-18T09:58:13;14.80;99.90
59146;DHT22;44928;53.074;6.646;2023-05-18T10:00:46;14.90;99.90
59146;DHT22;44928;53.074;6.646;2023-05-18T10:03:18;15.00;99.90
59146;DHT22;44928;53.074;6.646;2023-05-18T10:05:43;15.10;99.90
59146;DHT22;44928;53.074;6.646;2023-05-18T10:08:11;15.20;99.90
59146;DHT22;44928;53.074;6.646;2023-05-18T10:13:05;15.40;99.90
59146;DHT22;44928;53.074;6.646;2023-05-18T10:20:26;15.40;99.90
59146;DHT22;44928;53.074;6.646;2023-05-18T10:22:54;15.40;99.90
59146;DHT22;44928;53.074;6.646;2023-05-18T10:25:22;15.50;99.90
59146;DHT22;44928;53.074;6.646;2023-05-18T10:27:49;15.60;99.90
59146;DHT22;44928;53.074;6.646;2023-05-18T10:30:16;15.70;99.90
59146;DHT22;44928;53.074;6.646;2023-05-18T10:32:45;15.70;99.90
59146;DHT22;44928;53.074;6.646;2023-05-18T10:35:15;15.80;99.90
59146;DHT22;44928;53.074;6.646;2023-05-18T10:40:12;16.20;99.90
59146;DHT22;44928;53.074;6.646;2023-05-18T10:42:40;16.20;88.20
59146;DHT22;44928;53.074;6.646;2023-05-18T10:45:08;16.20;86.40
59146;DHT22;44928;53.074;6.646;2023-05-18T10:47:35;16.20;85.30
59146;DHT22;44928;53.074;6.646;2023-05-18T10:50:05;16.20;84.90
59146;DHT22;44928;53.074;6.646;2023-05-18T10:52:31;16.20;85.40
59146;DHT22;44928;53.074;6.646;2023-05-18T10:54:58;16.30;85.40
59146;DHT22;44928;53.074;6.646;2023-05-18T10:57:36;16.40;84.80
59146;DHT22;44928;53.074;6.646;2023-05-18T11:00:04;16.40;82.70
59146;DHT22;44928;53.074;6.646;2023-05-18T11:02:32;16.40;83.90
59146;DHT22;44928;53.074;6.646;2023-05-18T11:04:58;16.50;84.10
59146;DHT22;44928;53.074;6.646;2023-05-18T11:07:24;16.70;84.10
59146;DHT22;44928;53.074;6.646;2023-05-18T11:09:53;16.70;81.70
59146;DHT22;44928;53.074;6.646;2023-05-18T11:12:21;16.70;83.50
59146;DHT22;44928;53.074;6.646;2023-05-18T11:14:50;16.80;83.80
59146;DHT22;44928;53.074;6.646;2023-05-18T11:17:22;16.80;83.10
59146;DHT22;44928;53.074;6.646;2023-05-18T11:22:46;16.90;84.10
59146;DHT22;44928;53.074;6.646;2023-05-18T11:27:57;16.70;81.00
59146;DHT22;44928;53.074;6.646;2023-05-18T11:30:43;16.60;83.40
59146;DHT22;44928;53.074;6.646;2023-05-18T11:33:11;16.60;83.80
59146;DHT22;44928;53.074;6.646;2023-05-18T11:41:36;16.80;84.00
59146;DHT22;44928;53.074;6.646;2023-05-18T11:44:22;16.80;83.30
59146;DHT22;44928;53.074;6.646;2023-05-18T11:47:02;16.90;82.30
59146;DHT22;44928;53.074;6.646;2023-05-18T11:52:19;17.00;77.90
59146;DHT22;44928;53.074;6.646;2023-05-18T11:54:52;17.00;76.40
59146;DHT22;44928;53.074;6.646;2023-05-18T12:00:00;17.00;76.60
59146;DHT22;44928;53.074;6.646;2023-05-18T12:02:30;17.10;77.70
59146;DHT22;44928;53.074;6.646;2023-05-18T12:05:00;17.20;76.30
59146;DHT22;44928;53.074;6.646;2023-05-18T12:07:29;17.30;73.20
59146;DHT22;44928;53.074;6.646;2023-05-18T12:10:05;17.30;76.60
59146;DHT22;44928;53.074;6.646;2023-05-18T12:12:32;17.40;75.70
59146;DHT22;44928;53.074;6.646;2023-05-18T12:15:06;17.50;76.40
59146;DHT22;44928;53.074;6.646;2023-05-18T12:17:45;17.60;77.40
59146;DHT22;44928;53.074;6.646;2023-05-18T12:20:18;17.80;81.30
59146;DHT22;44928;53.074;6.646;2023-05-18T12:22:56;17.90;74.70
59146;DHT22;44928;53.074;6.646;2023-05-18T12:25:25;18.00;73.60
59146;DHT22;44928;53.074;6.646;2023-05-18T12:27:53;17.90;74.00
59146;DHT22;44928;53.074;6.646;2023-05-18T12:30:20;17.90;74.10
59146;DHT22;44928;53.074;6.646;2023-05-18T12:32:49;18.00;73.60
59146;DHT22;44928;53.074;6.646;2023-05-18T12:35:16;18.00;75.00
59146;DHT22;44928;53.074;6.646;2023-05-18T12:37:46;17.80;73.10
59146;DHT22;44928;53.074;6.646;2023-05-18T12:40:16;17.60;74.10
59146;DHT22;44928;53.074;6.646;2023-05-18T12:42:57;17.50;74.40
59146;DHT22;44928;53.074;6.646;2023-05-18T12:45:31;17.50;75.70
59146;DHT22;44928;53.074;6.646;2023-05-18T12:48:07;17.50;74.90
59146;DHT22;44928;53.074;6.646;2023-05-18T12:50:34;17.50;74.80
59146;DHT22;44928;53.074;6.646;2023-05-18T12:53:01;17.50;75.30
59146;DHT22;44928;53.074;6.646;2023-05-18T12:55:28;17.40;76.30
59146;DHT22;44928;53.074;6.646;2023-05-18T12:58:03;17.30;77.60
59146;DHT22;44928;53.074;6.646;2023-05-18T13:00:36;17.30;77.90
59146;DHT22;44928;53.074;6.646;2023-05-18T13:03:20;17.10;75.50
59146;DHT22;44928;53.074;6.646;2023-05-18T13:06:03;17.10;75.60
59146;DHT22;44928;53.074;6.646;2023-05-18T13:08:30;17.00;78.20
59146;DHT22;44928;53.074;6.646;2023-05-18T13:11:04;17.00;77.90
59146;DHT22;44928;53.074;6.646;2023-05-18T13:13:31;17.00;77.90
59146;DHT22;44928;53.074;6.646;2023-05-18T13:15:58;16.90;78.00
59146;DHT22;44928;53.074;6.646;2023-05-18T13:18:26;16.90;78.20
59146;DHT22;44928;53.074;6.646;2023-05-18T13:20:54;16.90;78.70
59146;DHT22;44928;53.074;6.646;2023-05-18T13:23:25;17.00;79.20
59146;DHT22;44928;53.074;6.646;2023-05-18T13:25:51;17.10;80.20
59146;DHT22;44928;53.074;6.646;2023-05-18T13:28:19;17.10;80.10
59146;DHT22;44928;53.074;6.646;2023-05-18T13:30:46;17.10;80.60
59146;DHT22;44928;53.074;6.646;2023-05-18T13:33:14;17.10;80.60
59146;DHT22;44928;53.074;6.646;2023-05-18T13:35:41;17.10;80.30
59146;DHT22;44928;53.074;6.646;2023-05-18T13:38:10;17.20;80.70
59146;DHT22;44928;53.074;6.646;2023-05-18T13:40:38;17.20;80.60
59146;DHT22;44928;53.074;6.646;2023-05-18T13:43:04;17.20;80.10
59146;DHT22;44928;53.074;6.646;2023-05-18T13:45:30;17.30;79.60
59146;DHT22;44928;53.074;6.646;2023-05-18T13:48:00;17.30;79.40
59146;DHT22;44928;53.074;6.646;2023-05-18T13:50:27;17.40;80.50
59146;DHT22;44928;53.074;6.646;2023-05-18T13:52:53;17.40;80.60
59146;DHT22;44928;53.074;6.646;2023-05-18T13:55:19;17.30;80.30
59146;DHT22;44928;53.074;6.646;2023-05-18T13:57:45;17.30;82.50
59146;DHT22;44928;53.074;6.646;2023-05-18T14:00:11;17.40;83.30
59146;DHT22;44928;53.074;6.646;2023-05-18T14:02:42;17.40;81.50
59146;DHT22;44928;53.074;6.646;2023-05-18T14:05:09;17.50;80.40
59146;DHT22;44928;53.074;6.646;2023-05-18T14:07:39;17.40;81.50
59146;DHT22;44928;53.074;6.646;2023-05-18T14:10:07;17.30;82.30
59146;DHT22;44928;53.074;6.646;2023-05-18T14:12:33;17.20;83.20
59146;DHT22;44928;53.074;6.646;2023-05-18T14:15:00;17.20;86.80
59146;DHT22;44928;53.074;6.646;2023-05-18T14:17:26;17.20;86.50
59146;DHT22;44928;53.074;6.646;2023-05-18T14:19:54;17.20;88.00
59146;DHT22;44928;53.074;6.646;2023-05-18T14:22:20;17.30;90.00
59146;DHT22;44928;53.074;6.646;2023-05-18T14:24:47;17.40;90.50
59146;DHT22;44928;53.074;6.646;2023-05-18T14:27:13;17.40;89.00
59146;DHT22;44928;53.074;6.646;2023-05-18T14:29:38;17.50;89.20
59146;DHT22;44928;53.074;6.646;2023-05-18T14:32:05;17.50;89.10
59146;DHT22;44928;53.074;6.646;2023-05-18T14:34:30;17.40;86.90
59146;DHT22;44928;53.074;6.646;2023-05-18T14:36:56;17.30;86.60
59146;DHT22;44928;53.074;6.646;2023-05-18T14:39:22;17.20;87.10
59146;DHT22;44928;53.074;6.646;2023-05-18T14:41:47;17.10;89.30
59146;DHT22;44928;53.074;6.646;2023-05-18T14:44:13;17.00;90.20
59146;DHT22;44928;53.074;6.646;2023-05-18T14:46:39;16.90;90.50
59146;DHT22;44928;53.074;6.646;2023-05-18T14:49:08;16.90;91.10
59146;DHT22;44928;53.074;6.646;2023-05-18T14:51:33;16.90;91.60
59146;DHT22;44928;53.074;6.646;2023-05-18T14:53:59;16.80;91.30
59146;DHT22;44928;53.074;6.646;2023-05-18T14:56:25;16.80;91.60
59146;DHT22;44928;53.074;6.646;2023-05-18T14:58:51;16.80;92.10
59146;DHT22;44928;53.074;6.646;2023-05-18T15:01:17;16.80;92.40
59146;DHT22;44928;53.074;6.646;2023-05-18T15:03:43;16.70;93.10
59146;DHT22;44928;53.074;6.646;2023-05-18T15:06:08;16.60;93.80
59146;DHT22;44928;53.074;6.646;2023-05-18T15:08:34;16.50;94.40
59146;DHT22;44928;53.074;6.646;2023-05-18T15:11:00;16.40;95.50
59146;DHT22;44928;53.074;6.646;2023-05-18T15:13:25;16.50;96.60
59146;DHT22;44928;53.074;6.646;2023-05-18T15:15:51;16.40;96.80
59146;DHT22;44928;53.074;6.646;2023-05-18T15:18:17;16.30;97.00
59146;DHT22;44928;53.074;6.646;2023-05-18T15:20:43;16.30;97.50
59146;DHT22;44928;53.074;6.646;2023-05-18T15:23:11;16.20;97.70
59146;DHT22;44928;53.074;6.646;2023-05-18T15:25:37;16.20;98.00
59146;DHT22;44928;53.074;6.646;2023-05-18T15:28:03;16.20;97.70
59146;DHT22;44928;53.074;6.646;2023-05-18T15:30:29;16.20;98.00
59146;DHT22;44928;53.074;6.646;2023-05-18T15:32:55;16.10;98.00
59146;DHT22;44928;53.074;6.646;2023-05-18T15:35:21;16.10;98.20
59146;DHT22;44928;53.074;6.646;2023-05-18T15:37:47;16.10;98.20
59146;DHT22;44928;53.074;6.646;2023-05-18T15:40:17;16.10;98.70
59146;DHT22;44928;53.074;6.646;2023-05-18T15:42:43;16.00;98.90
59146;DHT22;44928;53.074;6.646;2023-05-18T15:45:09;16.00;98.80
59146;DHT22;44928;53.074;6.646;2023-05-18T15:47:35;15.90;98.80
59146;DHT22;44928;53.074;6.646;2023-05-18T15:50:01;15.80;98.90
59146;DHT22;44928;53.074;6.646;2023-05-18T15:52:27;15.80;99.40
59146;DHT22;44928;53.074;6.646;2023-05-18T15:54:52;15.80;99.80
59146;DHT22;44928;53.074;6.646;2023-05-18T15:57:18;15.80;99.90
59146;DHT22;44928;53.074;6.646;2023-05-18T15:59:44;15.80;99.90
59146;DHT22;44928;53.074;6.646;2023-05-18T16:02:10;15.80;99.90
59146;DHT22;44928;53.074;6.646;2023-05-18T16:04:35;15.80;99.90
59146;DHT22;44928;53.074;6.646;2023-05-18T16:07:01;15.70;99.90
59146;DHT22;44928;53.074;6.646;2023-05-18T16:09:28;15.70;99.90
59146;DHT22;44928;53.074;6.646;2023-05-18T16:11:53;15.60;99.90